sensor_id;sensor_type;location;lat;lon;timestamp;P1;durP1;ratioP1;P2;durP2;ratioP2
53263;SDS011;39153;52.680;6.172;2023-12-28T00:00:07;7.35;;;3.75;;
53263;SDS011;39153;52.680;6.172;2023-12-28T00:02:33;7.47;;;3.78;;
53263;SDS011;39153;52.680;6.172;2023-12-28T00:04:59;7.45;;;3.60;;
53263;SDS011;39153;52.680;6.172;2023-12-28T00:07:24;9.77;;;4.10;;
53263;SDS011;39153;52.680;6.172;2023-12-28T00:09:50;7.45;;;3.80;;
53263;SDS011;39153;52.680;6.172;2023-12-28T00:12:16;8.50;;;3.85;;
53263;SDS011;39153;52.680;6.172;2023-12-28T00:14:41;7.60;;;3.72;;
53263;SDS011;39153;52.680;6.172;2023-12-28T00:17:07;6.65;;;4.05;;
53263;SDS011;39153;52.680;6.172;2023-12-28T00:19:33;7.82;;;4.05;;
53263;SDS011;39153;52.680;6.172;2023-12-28T00:21:58;11.65;;;4.32;;
53263;SDS011;39153;52.680;6.172;2023-12-28T00:24:24;10.95;;;4.18;;
53263;SDS011;39153;52.680;6.172;2023-12-28T00:26:50;10.23;;;3.88;;
53263;SDS011;39153;52.680;6.172;2023-12-28T00:29:15;7.72;;;3.65;;
53263;SDS011;39153;52.680;6.172;2023-12-28T00:31:41;8.15;;;3.85;;
53263;SDS011;39153;52.680;6.172;2023-12-28T00:34:07;8.40;;;4.18;;
53263;SDS011;39153;52.680;6.172;2023-12-28T00:36:32;8.60;;;3.75;;
53263;SDS011;39153;52.680;6.172;2023-12-28T00:38:58;9.07;;;3.63;;
53263;SDS011;39153;52.680;6.172;2023-12-28T00:41:23;7.45;;;3.75;;
53263;SDS011;39153;52.680;6.172;2023-12-28T00:43:49;7.85;;;3.65;;
53263;SDS011;39153;52.680;6.172;2023-12-28T00:46:15;8.57;;;4.28;;
53263;SDS011;39153;52.680;6.172;2023-12-28T00:48:40;7.93;;;3.88;;
53263;SDS011;39153;52.680;6.172;2023-12-28T00:51:06;10.30;;;4.00;;
53263;SDS011;39153;52.680;6.172;2023-12-28T00:53:32;7.82;;;4.10;;
53263;SDS011;39153;52.680;6.172;2023-12-28T00:55:58;8.68;;;3.53;;
53263;SDS011;39153;52.680;6.172;2023-12-28T00:58:23;9.35;;;4.20;;
53263;SDS011;39153;52.680;6.172;2023-12-28T01:00:49;7.53;;;4.03;;
53263;SDS011;39153;52.680;6.172;2023-12-28T01:03:18;8.63;;;3.75;;
53263;SDS011;39153;52.680;6.172;2023-12-28T01:05:45;9.18;;;4.25;;
53263;SDS011;39153;52.680;6.172;2023-12-28T01:08:12;7.28;;;4.00;;
53263;SDS011;39153;52.680;6.172;2023-12-28T01:10:38;11.13;;;4.38;;
53263;SDS011;39153;52.680;6.172;2023-12-28T01:13:04;9.77;;;4.20;;
53263;SDS011;39153;52.680;6.172;2023-12-28T01:15:29;9.52;;;4.05;;
53263;SDS011;39153;52.680;6.172;2023-12-28T01:17:56;12.27;;;3.95;;
53263;SDS011;39153;52.680;6.172;2023-12-28T01:20:22;12.43;;;4.15;;
53263;SDS011;39153;52.680;6.172;2023-12-28T01:22:47;10.70;;;4.28;;
53263;SDS011;39153;52.680;6.172;2023-12-28T01:25:15;10.93;;;3.90;;
53263;SDS011;39153;52.680;6.172;2023-12-28T01:27:41;15.60;;;4.30;;
53263;SDS011;39153;52.680;6.172;2023-12-28T01:30:06;11.80;;;3.83;;
53263;SDS011;39153;52.680;6.172;2023-12-28T01:32:32;10.95;;;4.18;;
53263;SDS011;39153;52.680;6.172;2023-12-28T01:34:58;12.00;;;4.05;;
53263;SDS011;39153;52.680;6.172;2023-12-28T01:37:24;14.48;;;4.45;;
53263;SDS011;39153;52.680;6.172;2023-12-28T01:39:49;12.75;;;4.07;;
53263;SDS011;39153;52.680;6.172;2023-12-28T01:42:15;12.30;;;4.00;;
53263;SDS011;39153;52.680;6.172;2023-12-28T01:44:41;9.90;;;3.95;;
53263;SDS011;39153;52.680;6.172;2023-12-28T01:47:06;11.10;;;3.90;;
53263;SDS011;39153;52.680;6.172;2023-12-28T01:49:33;14.02;;;4.20;;
53263;SDS011;39153;52.680;6.172;2023-12-28T01:52:00;16.67;;;4.57;;
53263;SDS011;39153;52.680;6.172;2023-12-28T01:54:26;16.27;;;4.30;;
53263;SDS011;39153;52.680;6.172;2023-12-28T01:56:52;14.20;;;4.32;;
53263;SDS011;39153;52.680;6.172;2023-12-28T01:59:18;11.30;;;4.05;;
53263;SDS011;39153;52.680;6.172;2023-12-28T02:01:44;14.48;;;4.03;;
53263;SDS011;39153;52.680;6.172;2023-12-28T02:04:11;14.73;;;4.13;;
53263;SDS011;39153;52.680;6.172;2023-12-28T02:06:36;12.90;;;4.00;;
53263;SDS011;39153;52.680;6.172;2023-12-28T02:09:02;13.15;;;3.97;;
53263;SDS011;39153;52.680;6.172;2023-12-28T02:11:28;13.00;;;4.00;;
53263;SDS011;39153;52.680;6.172;2023-12-28T02:13:54;12.10;;;3.83;;
53263;SDS011;39153;52.680;6.172;2023-12-28T02:16:28;8.68;;;3.28;;
53263;SDS011;39153;52.680;6.172;2023-12-28T02:19:03;12.05;;;3.80;;
53263;SDS011;39153;52.680;6.172;2023-12-28T02:21:40;13.48;;;3.50;;
53263;SDS011;39153;52.680;6.172;2023-12-28T02:24:06;10.95;;;3.90;;
53263;SDS011;39153;52.680;6.172;2023-12-28T02:26:32;14.20;;;4.18;;
53263;SDS011;39153;52.680;6.172;2023-12-28T02:28:57;8.65;;;3.20;;
53263;SDS011;39153;52.680;6.172;2023-12-28T02:31:28;12.90;;;3.47;;
53263;SDS011;39153;52.680;6.172;2023-12-28T02:34:12;10.40;;;3.33;;
53263;SDS011;39153;52.680;6.172;2023-12-28T02:36:41;11.38;;;3.20;;
53263;SDS011;39153;52.680;6.172;2023-12-28T02:39:11;17.38;;;3.70;;
53263;SDS011;39153;52.680;6.172;2023-12-28T02:41:41;9.98;;;2.97;;
53263;SDS011;39153;52.680;6.172;2023-12-28T02:44:08;13.00;;;2.90;;
53263;SDS011;39153;52.680;6.172;2023-12-28T02:46:34;12.05;;;3.17;;
53263;SDS011;39153;52.680;6.172;2023-12-28T02:49:00;9.93;;;2.97;;
53263;SDS011;39153;52.680;6.172;2023-12-28T02:51:25;12.38;;;3.13;;
53263;SDS011;39153;52.680;6.172;2023-12-28T02:53:51;11.77;;;3.22;;
53263;SDS011;39153;52.680;6.172;2023-12-28T02:56:17;14.43;;;3.10;;
53263;SDS011;39153;52.680;6.172;2023-12-28T02:58:42;12.52;;;3.17;;
53263;SDS011;39153;52.680;6.172;2023-12-28T03:01:08;12.57;;;2.72;;
53263;SDS011;39153;52.680;6.172;2023-12-28T03:03:34;14.48;;;2.85;;
53263;SDS011;39153;52.680;6.172;2023-12-28T03:06:00;10.82;;;3.17;;
53263;SDS011;39153;52.680;6.172;2023-12-28T03:08:25;11.30;;;3.63;;
53263;SDS011;39153;52.680;6.172;2023-12-28T03:10:51;10.30;;;3.15;;
53263;SDS011;39153;52.680;6.172;2023-12-28T03:13:18;10.73;;;3.33;;
53263;SDS011;39153;52.680;6.172;2023-12-28T03:15:43;10.45;;;2.88;;
53263;SDS011;39153;52.680;6.172;2023-12-28T03:18:09;9.50;;;2.60;;
53263;SDS011;39153;52.680;6.172;2023-12-28T03:20:34;12.60;;;3.45;;
53263;SDS011;39153;52.680;6.172;2023-12-28T03:23:00;11.77;;;2.67;;
53263;SDS011;39153;52.680;6.172;2023-12-28T03:25:26;10.60;;;2.75;;
53263;SDS011;39153;52.680;6.172;2023-12-28T03:27:51;12.00;;;3.03;;
53263;SDS011;39153;52.680;6.172;2023-12-28T03:30:17;10.27;;;2.50;;
53263;SDS011;39153;52.680;6.172;2023-12-28T03:32:43;9.63;;;3.08;;
53263;SDS011;39153;52.680;6.172;2023-12-28T03:35:08;10.38;;;2.50;;
53263;SDS011;39153;52.680;6.172;2023-12-28T03:37:34;10.23;;;2.75;;
53263;SDS011;39153;52.680;6.172;2023-12-28T03:40:00;8.88;;;2.45;;
53263;SDS011;39153;52.680;6.172;2023-12-28T03:42:26;9.23;;;2.60;;
53263;SDS011;39153;52.680;6.172;2023-12-28T03:44:51;9.02;;;2.13;;
53263;SDS011;39153;52.680;6.172;2023-12-28T03:47:17;6.20;;;2.67;;
53263;SDS011;39153;52.680;6.172;2023-12-28T03:49:43;9.43;;;2.20;;
53263;SDS011;39153;52.680;6.172;2023-12-28T03:52:08;13.13;;;3.17;;
53263;SDS011;39153;52.680;6.172;2023-12-28T03:54:34;13.25;;;2.60;;
53263;SDS011;39153;52.680;6.172;2023-12-28T03:57:00;14.13;;;3.00;;
53263;SDS011;39153;52.680;6.172;2023-12-28T03:59:25;10.35;;;2.50;;
53263;SDS011;39153;52.680;6.172;2023-12-28T04:01:51;11.50;;;2.80;;
53263;SDS011;39153;52.680;6.172;2023-12-28T04:04:16;11.70;;;2.65;;
53263;SDS011;39153;52.680;6.172;2023-12-28T04:06:42;11.20;;;2.97;;
53263;SDS011;39153;52.680;6.172;2023-12-28T04:09:11;14.43;;;2.85;;
53263;SDS011;39153;52.680;6.172;2023-12-28T04:11:37;12.98;;;2.53;;
53263;SDS011;39153;52.680;6.172;2023-12-28T04:14:03;10.35;;;2.47;;
53263;SDS011;39153;52.680;6.172;2023-12-28T04:16:28;16.35;;;2.70;;
53263;SDS011;39153;52.680;6.172;2023-12-28T04:18:54;12.52;;;2.65;;
53263;SDS011;39153;52.680;6.172;2023-12-28T04:21:20;13.32;;;2.63;;
53263;SDS011;39153;52.680;6.172;2023-12-28T04:23:46;17.83;;;3.15;;
53263;SDS011;39153;52.680;6.172;2023-12-28T04:26:12;12.68;;;2.88;;
53263;SDS011;39153;52.680;6.172;2023-12-28T04:28:38;8.35;;;1.90;;
53263;SDS011;39153;52.680;6.172;2023-12-28T04:31:04;14.90;;;2.92;;
53263;SDS011;39153;52.680;6.172;2023-12-28T04:33:31;8.15;;;2.40;;
53263;SDS011;39153;52.680;6.172;2023-12-28T04:36:00;13.38;;;2.90;;
53263;SDS011;39153;52.680;6.172;2023-12-28T04:38:28;11.73;;;2.40;;
53263;SDS011;39153;52.680;6.172;2023-12-28T04:40:54;13.57;;;3.05;;
53263;SDS011;39153;52.680;6.172;2023-12-28T04:43:19;11.32;;;2.67;;
53263;SDS011;39153;52.680;6.172;2023-12-28T04:45:45;13.50;;;2.92;;
53263;SDS011;39153;52.680;6.172;2023-12-28T04:48:11;17.30;;;2.78;;
53263;SDS011;39153;52.680;6.172;2023-12-28T04:50:36;13.90;;;2.55;;
53263;SDS011;39153;52.680;6.172;2023-12-28T04:53:02;13.50;;;2.53;;
53263;SDS011;39153;52.680;6.172;2023-12-28T04:55:28;11.57;;;3.38;;
53263;SDS011;39153;52.680;6.172;2023-12-28T04:57:54;15.30;;;2.70;;
53263;SDS011;39153;52.680;6.172;2023-12-28T05:00:19;12.55;;;2.97;;
53263;SDS011;39153;52.680;6.172;2023-12-28T05:02:45;10.63;;;2.40;;
53263;SDS011;39153;52.680;6.172;2023-12-28T05:05:14;16.42;;;3.15;;
53263;SDS011;39153;52.680;6.172;2023-12-28T05:07:40;21.27;;;3.40;;
53263;SDS011;39153;52.680;6.172;2023-12-28T05:10:06;13.63;;;2.92;;
53263;SDS011;39153;52.680;6.172;2023-12-28T05:12:32;13.40;;;3.03;;
53263;SDS011;39153;52.680;6.172;2023-12-28T05:14:57;15.25;;;2.72;;
53263;SDS011;39153;52.680;6.172;2023-12-28T05:17:23;12.02;;;2.58;;
53263;SDS011;39153;52.680;6.172;2023-12-28T05:19:48;15.30;;;2.50;;
53263;SDS011;39153;52.680;6.172;2023-12-28T05:22:14;14.38;;;2.60;;
53263;SDS011;39153;52.680;6.172;2023-12-28T05:24:40;16.85;;;2.92;;
53263;SDS011;39153;52.680;6.172;2023-12-28T05:27:05;18.02;;;3.05;;
53263;SDS011;39153;52.680;6.172;2023-12-28T05:29:31;15.57;;;3.13;;
53263;SDS011;39153;52.680;6.172;2023-12-28T05:31:57;20.65;;;3.22;;
53263;SDS011;39153;52.680;6.172;2023-12-28T05:34:22;14.50;;;2.97;;
53263;SDS011;39153;52.680;6.172;2023-12-28T05:36:48;14.75;;;2.65;;
53263;SDS011;39153;52.680;6.172;2023-12-28T05:39:14;13.65;;;3.00;;
53263;SDS011;39153;52.680;6.172;2023-12-28T05:41:39;17.90;;;3.10;;
53263;SDS011;39153;52.680;6.172;2023-12-28T05:44:05;14.18;;;2.83;;
53263;SDS011;39153;52.680;6.172;2023-12-28T05:46:31;15.95;;;2.72;;
53263;SDS011;39153;52.680;6.172;2023-12-28T05:48:57;14.18;;;2.63;;
53263;SDS011;39153;52.680;6.172;2023-12-28T05:51:23;15.48;;;2.65;;
53263;SDS011;39153;52.680;6.172;2023-12-28T05:53:49;12.80;;;3.05;;
53263;SDS011;39153;52.680;6.172;2023-12-28T05:56:14;16.55;;;2.50;;
53263;SDS011;39153;52.680;6.172;2023-12-28T05:58:40;15.30;;;2.92;;
53263;SDS011;39153;52.680;6.172;2023-12-28T06:01:06;13.32;;;2.97;;
53263;SDS011;39153;52.680;6.172;2023-12-28T06:03:32;12.10;;;2.72;;
53263;SDS011;39153;52.680;6.172;2023-12-28T06:05:58;12.57;;;2.50;;
53263;SDS011;39153;52.680;6.172;2023-12-28T06:08:23;14.57;;;2.90;;
53263;SDS011;39153;52.680;6.172;2023-12-28T06:10:49;13.32;;;2.78;;
53263;SDS011;39153;52.680;6.172;2023-12-28T06:13:15;14.90;;;2.53;;
53263;SDS011;39153;52.680;6.172;2023-12-28T06:15:40;8.65;;;2.42;;
53263;SDS011;39153;52.680;6.172;2023-12-28T06:18:06;24.38;;;3.85;;
53263;SDS011;39153;52.680;6.172;2023-12-28T06:20:32;22.40;;;4.05;;
53263;SDS011;39153;52.680;6.172;2023-12-28T06:22:58;12.13;;;2.60;;
53263;SDS011;39153;52.680;6.172;2023-12-28T06:25:23;14.95;;;2.92;;
53263;SDS011;39153;52.680;6.172;2023-12-28T06:27:49;18.10;;;2.97;;
53263;SDS011;39153;52.680;6.172;2023-12-28T06:30:15;16.50;;;2.92;;
53263;SDS011;39153;52.680;6.172;2023-12-28T06:32:40;16.00;;;2.88;;
53263;SDS011;39153;52.680;6.172;2023-12-28T06:35:06;16.73;;;2.95;;
53263;SDS011;39153;52.680;6.172;2023-12-28T06:37:32;13.23;;;2.78;;
53263;SDS011;39153;52.680;6.172;2023-12-28T06:39:58;15.23;;;2.70;;
53263;SDS011;39153;52.680;6.172;2023-12-28T06:42:23;19.25;;;3.13;;
53263;SDS011;39153;52.680;6.172;2023-12-28T06:44:49;18.90;;;2.95;;
53263;SDS011;39153;52.680;6.172;2023-12-28T06:47:15;17.05;;;2.80;;
53263;SDS011;39153;52.680;6.172;2023-12-28T06:49:40;21.30;;;3.40;;
53263;SDS011;39153;52.680;6.172;2023-12-28T06:52:06;12.63;;;2.75;;
53263;SDS011;39153;52.680;6.172;2023-12-28T06:54:31;18.73;;;3.20;;
53263;SDS011;39153;52.680;6.172;2023-12-28T06:56:57;15.88;;;3.20;;
53263;SDS011;39153;52.680;6.172;2023-12-28T06:59:23;17.02;;;3.05;;
53263;SDS011;39153;52.680;6.172;2023-12-28T07:01:48;17.25;;;3.72;;
53263;SDS011;39153;52.680;6.172;2023-12-28T07:04:14;19.90;;;3.33;;
53263;SDS011;39153;52.680;6.172;2023-12-28T07:06:40;15.77;;;2.75;;
53263;SDS011;39153;52.680;6.172;2023-12-28T07:09:06;15.77;;;3.25;;
53263;SDS011;39153;52.680;6.172;2023-12-28T07:11:32;19.48;;;3.13;;
53263;SDS011;39153;52.680;6.172;2023-12-28T07:13:57;19.67;;;3.10;;
53263;SDS011;39153;52.680;6.172;2023-12-28T07:16:23;18.85;;;3.55;;
53263;SDS011;39153;52.680;6.172;2023-12-28T07:18:49;15.68;;;3.53;;
53263;SDS011;39153;52.680;6.172;2023-12-28T07:21:14;18.77;;;2.90;;
53263;SDS011;39153;52.680;6.172;2023-12-28T07:23:40;15.55;;;3.13;;
53263;SDS011;39153;52.680;6.172;2023-12-28T07:26:06;22.10;;;3.45;;
53263;SDS011;39153;52.680;6.172;2023-12-28T07:28:32;16.65;;;3.20;;
53263;SDS011;39153;52.680;6.172;2023-12-28T07:30:57;16.55;;;3.13;;
53263;SDS011;39153;52.680;6.172;2023-12-28T07:33:23;18.00;;;3.30;;
53263;SDS011;39153;52.680;6.172;2023-12-28T07:35:49;23.95;;;4.05;;
53263;SDS011;39153;52.680;6.172;2023-12-28T07:38:14;23.08;;;3.55;;
53263;SDS011;39153;52.680;6.172;2023-12-28T07:40:41;20.27;;;3.88;;
53263;SDS011;39153;52.680;6.172;2023-12-28T07:43:06;19.52;;;3.72;;
53263;SDS011;39153;52.680;6.172;2023-12-28T07:45:32;20.13;;;3.65;;
53263;SDS011;39153;52.680;6.172;2023-12-28T07:48:01;23.33;;;4.18;;
53263;SDS011;39153;52.680;6.172;2023-12-28T07:50:27;17.00;;;3.50;;
53263;SDS011;39153;52.680;6.172;2023-12-28T07:52:52;25.48;;;3.72;;
53263;SDS011;39153;52.680;6.172;2023-12-28T07:55:18;20.45;;;3.63;;
53263;SDS011;39153;52.680;6.172;2023-12-28T07:57:44;27.15;;;3.63;;
53263;SDS011;39153;52.680;6.172;2023-12-28T08:00:10;24.05;;;3.90;;
53263;SDS011;39153;52.680;6.172;2023-12-28T08:02:37;22.33;;;4.13;;
53263;SDS011;39153;52.680;6.172;2023-12-28T08:05:03;21.40;;;3.70;;
53263;SDS011;39153;52.680;6.172;2023-12-28T08:07:29;17.13;;;3.63;;
53263;SDS011;39153;52.680;6.172;2023-12-28T08:09:55;22.38;;;3.80;;
53263;SDS011;39153;52.680;6.172;2023-12-28T08:12:21;21.42;;;3.58;;
53263;SDS011;39153;52.680;6.172;2023-12-28T08:14:47;19.25;;;3.80;;
53263;SDS011;39153;52.680;6.172;2023-12-28T08:17:12;26.45;;;3.83;;
53263;SDS011;39153;52.680;6.172;2023-12-28T08:19:38;19.85;;;3.65;;
53263;SDS011;39153;52.680;6.172;2023-12-28T08:22:04;21.38;;;4.18;;
53263;SDS011;39153;52.680;6.172;2023-12-28T08:24:30;27.05;;;4.40;;
53263;SDS011;39153;52.680;6.172;2023-12-28T08:26:55;17.17;;;3.55;;
53263;SDS011;39153;52.680;6.172;2023-12-28T08:29:25;23.00;;;3.80;;
53263;SDS011;39153;52.680;6.172;2023-12-28T08:31:51;18.40;;;3.15;;
53263;SDS011;39153;52.680;6.172;2023-12-28T08:34:17;23.33;;;4.32;;
53263;SDS011;39153;52.680;6.172;2023-12-28T08:36:43;20.73;;;3.60;;
53263;SDS011;39153;52.680;6.172;2023-12-28T08:39:09;24.13;;;4.15;;
53263;SDS011;39153;52.680;6.172;2023-12-28T08:41:35;31.45;;;4.38;;
53263;SDS011;39153;52.680;6.172;2023-12-28T08:44:00;27.40;;;4.63;;
53263;SDS011;39153;52.680;6.172;2023-12-28T08:46:26;18.67;;;3.88;;
53263;SDS011;39153;52.680;6.172;2023-12-28T08:48:52;20.48;;;4.15;;
53263;SDS011;39153;52.680;6.172;2023-12-28T08:51:18;21.33;;;3.38;;
53263;SDS011;39153;52.680;6.172;2023-12-28T08:53:44;20.15;;;4.22;;
53263;SDS011;39153;52.680;6.172;2023-12-28T08:56:13;23.02;;;3.80;;
53263;SDS011;39153;52.680;6.172;2023-12-28T08:58:44;20.55;;;3.50;;
53263;SDS011;39153;52.680;6.172;2023-12-28T09:01:18;21.75;;;4.15;;
53263;SDS011;39153;52.680;6.172;2023-12-28T09:03:50;22.88;;;3.80;;
53263;SDS011;39153;52.680;6.172;2023-12-28T09:06:17;20.25;;;3.15;;
53263;SDS011;39153;52.680;6.172;2023-12-28T09:08:43;22.67;;;3.22;;
53263;SDS011;39153;52.680;6.172;2023-12-28T09:11:11;26.00;;;4.13;;
53263;SDS011;39153;52.680;6.172;2023-12-28T09:13:37;18.02;;;3.78;;
53263;SDS011;39153;52.680;6.172;2023-12-28T09:16:04;18.48;;;3.53;;
53263;SDS011;39153;52.680;6.172;2023-12-28T09:18:30;18.77;;;3.50;;
53263;SDS011;39153;52.680;6.172;2023-12-28T09:20:56;20.73;;;3.50;;
53263;SDS011;39153;52.680;6.172;2023-12-28T09:23:22;20.45;;;3.97;;
53263;SDS011;39153;52.680;6.172;2023-12-28T09:25:47;18.52;;;3.42;;
53263;SDS011;39153;52.680;6.172;2023-12-28T09:28:14;20.40;;;3.55;;
53263;SDS011;39153;52.680;6.172;2023-12-28T09:30:40;21.67;;;3.95;;
53263;SDS011;39153;52.680;6.172;2023-12-28T09:33:05;17.95;;;3.38;;
53263;SDS011;39153;52.680;6.172;2023-12-28T09:35:31;19.80;;;4.10;;
53263;SDS011;39153;52.680;6.172;2023-12-28T09:37:57;21.00;;;4.10;;
53263;SDS011;39153;52.680;6.172;2023-12-28T09:40:23;18.35;;;3.40;;
53263;SDS011;39153;52.680;6.172;2023-12-28T09:43:33;19.77;;;3.75;;
53263;SDS011;39153;52.680;6.172;2023-12-28T09:45:47;23.38;;;3.78;;
53263;SDS011;39153;52.680;6.172;2023-12-28T09:48:15;19.40;;;3.40;;
53263;SDS011;39153;52.680;6.172;2023-12-28T09:50:42;23.08;;;3.88;;
53263;SDS011;39153;52.680;6.172;2023-12-28T09:53:09;25.60;;;3.78;;
53263;SDS011;39153;52.680;6.172;2023-12-28T09:55:34;17.65;;;3.17;;
53263;SDS011;39153;52.680;6.172;2023-12-28T09:58:00;18.15;;;3.58;;
53263;SDS011;39153;52.680;6.172;2023-12-28T10:00:30;18.20;;;4.13;;
53263;SDS011;39153;52.680;6.172;2023-12-28T10:02:57;22.10;;;3.70;;
53263;SDS011;39153;52.680;6.172;2023-12-28T10:05:22;23.42;;;4.97;;
53263;SDS011;39153;52.680;6.172;2023-12-28T10:07:48;23.20;;;3.67;;
53263;SDS011;39153;52.680;6.172;2023-12-28T10:10:15;17.88;;;3.35;;
53263;SDS011;39153;52.680;6.172;2023-12-28T10:12:41;23.15;;;3.65;;
53263;SDS011;39153;52.680;6.172;2023-12-28T10:15:08;23.38;;;3.88;;
53263;SDS011;39153;52.680;6.172;2023-12-28T10:17:33;24.08;;;3.95;;
53263;SDS011;39153;52.680;6.172;2023-12-28T10:20:03;25.80;;;4.13;;
53263;SDS011;39153;52.680;6.172;2023-12-28T10:22:32;18.50;;;4.05;;
53263;SDS011;39153;52.680;6.172;2023-12-28T10:25:02;23.92;;;3.78;;
53263;SDS011;39153;52.680;6.172;2023-12-28T10:27:28;21.05;;;3.97;;
53263;SDS011;39153;52.680;6.172;2023-12-28T10:29:55;27.10;;;4.45;;
53263;SDS011;39153;52.680;6.172;2023-12-28T10:32:21;25.55;;;4.38;;
53263;SDS011;39153;52.680;6.172;2023-12-28T10:34:52;25.10;;;3.50;;
53263;SDS011;39153;52.680;6.172;2023-12-28T10:37:19;19.52;;;3.72;;
53263;SDS011;39153;52.680;6.172;2023-12-28T10:39:47;22.02;;;3.58;;
53263;SDS011;39153;52.680;6.172;2023-12-28T10:42:16;23.60;;;4.07;;
53263;SDS011;39153;52.680;6.172;2023-12-28T10:44:55;18.38;;;3.30;;
53263;SDS011;39153;52.680;6.172;2023-12-28T10:47:33;18.60;;;3.33;;
53263;SDS011;39153;52.680;6.172;2023-12-28T10:50:03;23.90;;;3.65;;
53263;SDS011;39153;52.680;6.172;2023-12-28T10:52:30;23.90;;;4.15;;
53263;SDS011;39153;52.680;6.172;2023-12-28T10:55:06;21.60;;;3.97;;
53263;SDS011;39153;52.680;6.172;2023-12-28T10:57:53;25.08;;;4.28;;
53263;SDS011;39153;52.680;6.172;2023-12-28T11:00:30;25.15;;;3.95;;
53263;SDS011;39153;52.680;6.172;2023-12-28T11:03:01;25.13;;;4.70;;
53263;SDS011;39153;52.680;6.172;2023-12-28T11:05:28;20.42;;;3.63;;
53263;SDS011;39153;52.680;6.172;2023-12-28T11:07:55;19.75;;;3.17;;
53263;SDS011;39153;52.680;6.172;2023-12-28T11:10:23;20.17;;;3.90;;
53263;SDS011;39153;52.680;6.172;2023-12-28T11:12:51;26.45;;;4.38;;
53263;SDS011;39153;52.680;6.172;2023-12-28T11:15:18;19.67;;;3.35;;
53263;SDS011;39153;52.680;6.172;2023-12-28T11:17:44;18.67;;;3.83;;
53263;SDS011;39153;52.680;6.172;2023-12-28T11:20:10;21.23;;;3.90;;
53263;SDS011;39153;52.680;6.172;2023-12-28T11:22:36;24.73;;;3.45;;
53263;SDS011;39153;52.680;6.172;2023-12-28T11:25:04;21.13;;;3.47;;
53263;SDS011;39153;52.680;6.172;2023-12-28T11:27:36;21.13;;;3.65;;
53263;SDS011;39153;52.680;6.172;2023-12-28T11:30:05;20.55;;;3.65;;
53263;SDS011;39153;52.680;6.172;2023-12-28T11:32:35;22.73;;;3.70;;
53263;SDS011;39153;52.680;6.172;2023-12-28T11:35:01;18.38;;;3.42;;
53263;SDS011;39153;52.680;6.172;2023-12-28T11:37:27;21.48;;;3.45;;
53263;SDS011;39153;52.680;6.172;2023-12-28T11:39:55;20.85;;;3.90;;
53263;SDS011;39153;52.680;6.172;2023-12-28T11:42:23;27.25;;;3.80;;
53263;SDS011;39153;52.680;6.172;2023-12-28T11:44:52;20.27;;;3.50;;
53263;SDS011;39153;52.680;6.172;2023-12-28T11:47:25;25.15;;;4.05;;
53263;SDS011;39153;52.680;6.172;2023-12-28T11:49:54;20.75;;;4.18;;
53263;SDS011;39153;52.680;6.172;2023-12-28T11:52:29;27.40;;;4.35;;
53263;SDS011;39153;52.680;6.172;2023-12-28T11:54:57;23.45;;;3.80;;
53263;SDS011;39153;52.680;6.172;2023-12-28T11:57:24;24.45;;;4.65;;
53263;SDS011;39153;52.680;6.172;2023-12-28T11:59:57;21.25;;;3.65;;
53263;SDS011;39153;52.680;6.172;2023-12-28T12:02:24;21.63;;;3.85;;
53263;SDS011;39153;52.680;6.172;2023-12-28T12:04:50;23.38;;;4.22;;
53263;SDS011;39153;52.680;6.172;2023-12-28T12:07:16;22.50;;;3.70;;
53263;SDS011;39153;52.680;6.172;2023-12-28T12:09:42;29.75;;;3.95;;
53263;SDS011;39153;52.680;6.172;2023-12-28T12:12:08;26.60;;;4.38;;
53263;SDS011;39153;52.680;6.172;2023-12-28T12:14:34;25.65;;;4.75;;
53263;SDS011;39153;52.680;6.172;2023-12-28T12:17:00;26.13;;;4.03;;
53263;SDS011;39153;52.680;6.172;2023-12-28T12:19:27;21.38;;;3.63;;
53263;SDS011;39153;52.680;6.172;2023-12-28T12:21:53;25.45;;;4.53;;
53263;SDS011;39153;52.680;6.172;2023-12-28T12:24:20;25.77;;;3.97;;
53263;SDS011;39153;52.680;6.172;2023-12-28T12:26:46;29.33;;;5.20;;
53263;SDS011;39153;52.680;6.172;2023-12-28T12:29:15;20.20;;;3.78;;
53263;SDS011;39153;52.680;6.172;2023-12-28T12:31:41;28.67;;;4.50;;
53263;SDS011;39153;52.680;6.172;2023-12-28T12:34:10;22.40;;;3.70;;
53263;SDS011;39153;52.680;6.172;2023-12-28T12:36:37;24.35;;;4.22;;
53263;SDS011;39153;52.680;6.172;2023-12-28T12:39:03;19.52;;;3.78;;
53263;SDS011;39153;52.680;6.172;2023-12-28T12:41:33;21.85;;;4.47;;
53263;SDS011;39153;52.680;6.172;2023-12-28T12:43:59;20.85;;;3.83;;
53263;SDS011;39153;52.680;6.172;2023-12-28T12:46:25;23.58;;;4.45;;
53263;SDS011;39153;52.680;6.172;2023-12-28T12:48:58;26.20;;;4.28;;
53263;SDS011;39153;52.680;6.172;2023-12-28T12:51:25;20.42;;;4.07;;
53263;SDS011;39153;52.680;6.172;2023-12-28T12:54:00;22.83;;;4.25;;
53263;SDS011;39153;52.680;6.172;2023-12-28T12:56:30;23.55;;;3.75;;
53263;SDS011;39153;52.680;6.172;2023-12-28T12:58:56;20.63;;;3.88;;
53263;SDS011;39153;52.680;6.172;2023-12-28T13:01:23;17.60;;;3.17;;
53263;SDS011;39153;52.680;6.172;2023-12-28T13:03:50;22.08;;;3.65;;
53263;SDS011;39153;52.680;6.172;2023-12-28T13:06:16;20.05;;;3.60;;
53263;SDS011;39153;52.680;6.172;2023-12-28T13:08:41;24.88;;;4.20;;
53263;SDS011;39153;52.680;6.172;2023-12-28T13:11:07;27.05;;;4.22;;
53263;SDS011;39153;52.680;6.172;2023-12-28T13:13:33;20.27;;;3.72;;
53263;SDS011;39153;52.680;6.172;2023-12-28T13:16:00;28.08;;;4.10;;
53263;SDS011;39153;52.680;6.172;2023-12-28T13:18:26;22.45;;;3.63;;
53263;SDS011;39153;52.680;6.172;2023-12-28T13:20:53;22.42;;;4.05;;
53263;SDS011;39153;52.680;6.172;2023-12-28T13:23:19;26.15;;;4.20;;
53263;SDS011;39153;52.680;6.172;2023-12-28T13:25:45;26.15;;;4.32;;
53263;SDS011;39153;52.680;6.172;2023-12-28T13:28:11;19.02;;;3.90;;
53263;SDS011;39153;52.680;6.172;2023-12-28T13:30:38;28.63;;;4.47;;
53263;SDS011;39153;52.680;6.172;2023-12-28T13:33:04;26.02;;;4.47;;
53263;SDS011;39153;52.680;6.172;2023-12-28T13:35:31;20.77;;;3.67;;
53263;SDS011;39153;52.680;6.172;2023-12-28T13:38:00;19.67;;;3.65;;
53263;SDS011;39153;52.680;6.172;2023-12-28T13:40:29;28.67;;;4.10;;
53263;SDS011;39153;52.680;6.172;2023-12-28T13:42:56;21.73;;;4.15;;
53263;SDS011;39153;52.680;6.172;2023-12-28T13:45:22;26.15;;;3.88;;
53263;SDS011;39153;52.680;6.172;2023-12-28T13:47:47;23.40;;;3.78;;
53263;SDS011;39153;52.680;6.172;2023-12-28T13:50:13;26.05;;;3.78;;
53263;SDS011;39153;52.680;6.172;2023-12-28T13:52:39;17.92;;;4.13;;
53263;SDS011;39153;52.680;6.172;2023-12-28T13:55:05;22.75;;;3.78;;
53263;SDS011;39153;52.680;6.172;2023-12-28T13:57:31;22.50;;;3.78;;
53263;SDS011;39153;52.680;6.172;2023-12-28T13:59:57;23.85;;;3.75;;
53263;SDS011;39153;52.680;6.172;2023-12-28T14:02:28;25.38;;;3.50;;
53263;SDS011;39153;52.680;6.172;2023-12-28T14:04:53;23.10;;;3.88;;
53263;SDS011;39153;52.680;6.172;2023-12-28T14:07:21;19.05;;;3.75;;
53263;SDS011;39153;52.680;6.172;2023-12-28T14:09:47;21.23;;;3.63;;
53263;SDS011;39153;52.680;6.172;2023-12-28T14:12:13;18.90;;;3.88;;
53263;SDS011;39153;52.680;6.172;2023-12-28T14:14:38;26.95;;;4.28;;
53263;SDS011;39153;52.680;6.172;2023-12-28T14:17:04;22.92;;;4.15;;
53263;SDS011;39153;52.680;6.172;2023-12-28T14:19:30;20.80;;;3.75;;
53263;SDS011;39153;52.680;6.172;2023-12-28T14:21:57;25.25;;;3.92;;
53263;SDS011;39153;52.680;6.172;2023-12-28T14:24:23;20.58;;;4.22;;
53263;SDS011;39153;52.680;6.172;2023-12-28T14:26:50;20.17;;;3.60;;
53263;SDS011;39153;52.680;6.172;2023-12-28T14:29:19;21.23;;;3.70;;
53263;SDS011;39153;52.680;6.172;2023-12-28T14:31:46;22.25;;;3.72;;